createdAt,value
2023-03-20T00:01:22.422Z,95209.94
2023-03-20T00:03:49.229Z,95209.44
2023-03-20T00:06:17.580Z,95205.38
2023-03-20T00:08:46.079Z,95214.56
2023-03-20T00:11:28.905Z,95216.81
2023-03-20T00:14:01.395Z,95214.03
2023-03-20T00:16:33.352Z,95217.44
2023-03-20T00:19:00.339Z,95214.75
2023-03-20T00:21:29.216Z,95210.28
2023-03-20T00:23:56.629Z,95224.44
2023-03-20T00:26:35.028Z,95214.44
2023-03-20T00:29:04.311Z,95210.75
2023-03-20T00:31:32.063Z,95211.66
2023-03-20T00:34:05.564Z,95210.81
2023-03-20T00:36:32.613Z,95213.00
2023-03-20T00:38:59.381Z,95218.44
2023-03-20T00:41:41.697Z,95213.31
2023-03-20T00:44:33.136Z,95215.28
2023-03-20T00:47:11.543Z,95214.22
2023-03-20T00:49:38.423Z,95221.66
2023-03-20T00:52:06.574Z,95213.31
2023-03-20T00:54:33.530Z,95219.13
2023-03-20T00:57:07.782Z,95211.72
2023-03-20T00:59:38.875Z,95211.75
2023-03-20T01:02:06.258Z,95212.09
2023-03-20T01:04:39.096Z,95208.31
2023-03-20T01:07:07.587Z,95209.53
2023-03-20T01:09:35.351Z,95204.41
2023-03-20T01:12:04.138Z,95208.16
2023-03-20T01:14:31.218Z,95217.50
2023-03-20T01:16:57.748Z,95214.34
2023-03-20T01:19:24.569Z,95206.84
2023-03-20T01:21:51.493Z,95210.84
2023-03-20T01:24:18.950Z,95206.81
2023-03-20T01:26:46.483Z,95212.66
2023-03-20T01:29:25.694Z,95204.34
2023-03-20T01:31:52.722Z,95205.31
2023-03-20T01:34:21.161Z,95206.66
2023-03-20T01:36:54.283Z,95199.44
2023-03-20T01:39:24.472Z,95203.88
2023-03-20T01:41:53.061Z,95205.22
2023-03-20T01:44:30.405Z,95204.38
2023-03-20T01:47:00.332Z,95208.81
2023-03-20T01:49:28.265Z,95214.16
2023-03-20T01:52:00.699Z,95206.16
2023-03-20T01:54:35.684Z,95208.41
2023-03-20T01:57:25.017Z,95208.47
2023-03-20T02:00:15.728Z,95197.66
2023-03-20T02:02:45.247Z,95197.91
2023-03-20T02:05:19.281Z,95202.56
2023-03-20T02:07:53.108Z,95197.59
2023-03-20T02:10:20.697Z,95195.50
2023-03-20T02:12:57.212Z,95197.72
2023-03-20T02:15:37.063Z,95193.72
2023-03-20T02:18:13.222Z,95193.84
2023-03-20T02:20:49.924Z,95195.34
2023-03-20T02:23:48.405Z,95190.75
2023-03-20T02:26:44.557Z,95194.34
2023-03-20T02:29:50.776Z,95193.78
2023-03-20T02:32:29.707Z,95198.88
2023-03-20T02:35:15.082Z,95202.38
2023-03-20T02:37:51.049Z,95199.06
2023-03-20T02:40:29.975Z,95192.13
2023-03-20T02:43:26.089Z,95193.00
2023-03-20T02:46:08.236Z,95193.44
2023-03-20T02:48:57.966Z,95199.16
2023-03-20T02:51:41.669Z,95192.50
2023-03-20T02:54:08.563Z,95196.28
2023-03-20T02:56:57.456Z,95192.47
2023-03-20T02:59:41.511Z,95197.00
2023-03-20T03:02:16.900Z,95196.13
2023-03-20T03:04:54.960Z,95200.25
2023-03-20T03:07:26.695Z,95198.56
2023-03-20T03:10:11.675Z,95201.28
2023-03-20T03:12:43.253Z,95204.00
2023-03-20T03:15:31.409Z,95207.50
2023-03-20T03:18:00.188Z,95211.22
2023-03-20T03:20:32.584Z,95208.28
2023-03-20T03:23:00.022Z,95218.38
2023-03-20T03:25:35.801Z,95208.75
2023-03-20T03:28:10.504Z,95214.34
2023-03-20T03:30:39.680Z,95220.22
2023-03-20T03:33:31.021Z,95222.94
2023-03-20T03:36:18.007Z,95225.91
2023-03-20T03:39:09.458Z,95224.44
2023-03-20T03:41:49.394Z,95226.63
2023-03-20T03:44:21.448Z,95223.75
2023-03-20T03:46:51.298Z,95237.56
2023-03-20T03:49:42.654Z,95234.16
2023-03-20T03:52:16.735Z,95222.38
2023-03-20T03:54:59.750Z,95236.50
2023-03-20T03:57:39.582Z,95237.25
2023-03-20T04:00:13.533Z,95239.75
2023-03-20T04:02:44.125Z,95242.97
2023-03-20T04:05:13.879Z,95251.09
2023-03-20T04:07:45.553Z,95250.59
2023-03-20T04:10:12.714Z,95257.78
2023-03-20T04:12:42.607Z,95261.38
2023-03-20T04:15:14.461Z,95257.34
2023-03-20T04:17:42.058Z,95262.72
2023-03-20T04:20:12.224Z,95266.66
2023-03-20T04:22:39.691Z,95272.19
2023-03-20T04:25:10.514Z,95261.31
2023-03-20T04:27:37.228Z,95271.63
2023-03-20T04:30:11.795Z,95272.31
2023-03-20T04:32:57.693Z,95276.97
2023-03-20T04:35:47.458Z,95275.53
2023-03-20T04:38:16.449Z,95275.91
2023-03-20T04:40:45.411Z,95277.03
2023-03-20T04:43:12.751Z,95276.78
2023-03-20T04:45:40.581Z,95275.91
2023-03-20T04:48:09.070Z,95277.94
2023-03-20T04:50:36.051Z,95283.97
2023-03-20T04:53:03.387Z,95280.72
2023-03-20T04:55:30.567Z,95284.09
2023-03-20T04:57:57.375Z,95287.50
2023-03-20T05:00:26.333Z,95286.00
2023-03-20T05:02:52.894Z,95292.00
2023-03-20T05:05:19.468Z,95289.16
2023-03-20T05:07:46.858Z,95283.00
2023-03-20T05:10:23.541Z,95288.19
2023-03-20T05:12:58.915Z,95298.25
2023-03-20T05:15:44.545Z,95289.81
2023-03-20T05:18:37.099Z,95292.94
2023-03-20T05:21:10.259Z,95297.91
2023-03-20T05:23:42.687Z,95304.66
2023-03-20T05:26:28.007Z,95305.72
2023-03-20T05:29:06.806Z,95299.72
2023-03-20T05:31:33.370Z,95300.16
2023-03-20T05:34:00.413Z,95309.13
2023-03-20T05:36:44.048Z,95314.28
2023-03-20T05:39:28.842Z,95315.06
2023-03-20T05:42:06.747Z,95311.41
2023-03-20T05:44:47.973Z,95316.41
2023-03-20T05:47:17.534Z,95315.97
2023-03-20T05:50:04.783Z,95320.06
2023-03-20T05:53:03.561Z,95329.69
2023-03-20T05:55:44.774Z,95321.09
2023-03-20T05:58:30.469Z,95324.78
2023-03-20T06:01:27.629Z,95334.06
2023-03-20T06:04:21.188Z,95334.63
2023-03-20T06:07:04.589Z,95333.38
2023-03-20T06:09:31.627Z,95331.75
2023-03-20T06:11:58.424Z,95337.75
2023-03-20T06:14:26.490Z,95336.53
2023-03-20T06:16:58.014Z,95341.59
2023-03-20T06:19:25.738Z,95342.75
2023-03-20T06:21:52.325Z,95339.47
2023-03-20T06:24:21.059Z,95349.03
2023-03-20T06:26:47.724Z,95350.91
2023-03-20T06:29:14.610Z,95351.28
2023-03-20T06:31:41.592Z,95338.16
2023-03-20T06:34:13.060Z,95345.59
2023-03-20T06:36:45.464Z,95341.88
2023-03-20T06:39:18.672Z,95340.63
2023-03-20T06:41:45.939Z,95344.38
2023-03-20T06:44:12.932Z,95344.19
2023-03-20T06:47:11.608Z,95345.38
2023-03-20T06:49:38.518Z,95351.66
2023-03-20T06:52:06.637Z,95344.63
2023-03-20T06:54:33.626Z,95345.50
2023-03-20T06:57:00.249Z,95346.03
2023-03-20T06:59:27.316Z,95348.19
2023-03-20T07:01:57.490Z,95350.13
2023-03-20T07:04:25.534Z,95350.78
2023-03-20T07:06:56.859Z,95353.69
2023-03-20T07:09:23.904Z,95358.97
2023-03-20T07:11:50.661Z,95359.44
2023-03-20T07:14:18.177Z,95361.81
2023-03-20T07:16:53.413Z,95371.97
2023-03-20T07:19:21.274Z,95373.19
2023-03-20T07:21:57.932Z,95373.19
2023-03-20T07:24:24.863Z,95371.09
2023-03-20T07:26:51.800Z,95374.94
2023-03-20T07:29:19.364Z,95386.00
2023-03-20T07:31:46.625Z,95388.94
2023-03-20T07:34:21.210Z,95389.91
2023-03-20T07:36:47.905Z,95386.97
2023-03-20T07:39:18.418Z,95382.44
2023-03-20T07:41:54.343Z,95391.09
2023-03-20T07:44:43.802Z,95384.38
2023-03-20T07:47:11.659Z,95390.13
2023-03-20T07:49:38.257Z,95385.78
2023-03-20T07:52:07.713Z,95378.34
2023-03-20T07:54:34.781Z,95384.03
2023-03-20T07:57:01.677Z,95387.53
2023-03-20T07:59:28.302Z,95390.63
2023-03-20T08:01:55.157Z,95384.81
2023-03-20T08:04:23.118Z,95401.13
2023-03-20T08:06:51.234Z,95393.47
2023-03-20T08:09:18.618Z,95392.53
2023-03-20T08:11:45.690Z,95392.19
2023-03-20T08:14:12.555Z,95389.38
2023-03-20T08:16:39.322Z,95387.88
2023-03-20T08:19:06.692Z,95388.94
2023-03-20T08:21:34.033Z,95386.66
2023-03-20T08:24:01.441Z,95384.88
2023-03-20T08:26:28.086Z,95373.22
2023-03-20T08:28:54.934Z,95375.63
2023-03-20T08:31:21.568Z,95379.72
2023-03-20T08:33:48.698Z,95379.50
2023-03-20T08:36:17.179Z,95378.13
2023-03-20T08:38:43.845Z,95383.47
2023-03-20T08:41:10.523Z,95375.34
2023-03-20T08:43:37.284Z,95375.47
2023-03-20T08:46:04.780Z,95368.31
2023-03-20T08:48:31.413Z,95371.28
2023-03-20T08:50:58.080Z,95365.41
2023-03-20T08:53:24.899Z,95367.56
2023-03-20T08:55:52.620Z,95370.25
2023-03-20T08:58:23.377Z,95366.38
2023-03-20T09:00:50.162Z,95373.56
2023-03-20T09:03:19.314Z,95368.59
2023-03-20T09:05:47.786Z,95377.75
2023-03-20T09:08:14.420Z,95378.47
2023-03-20T09:10:41.560Z,95373.53
2023-03-20T09:13:25.653Z,95370.13
2023-03-20T09:15:55.164Z,95386.22
2023-03-20T09:18:23.410Z,95380.38
2023-03-20T09:20:50.962Z,95384.00
2023-03-20T09:23:18.711Z,95387.66
2023-03-20T09:25:45.270Z,95379.44
2023-03-20T09:28:12.022Z,95388.06
2023-03-20T09:30:39.205Z,95377.50
2023-03-20T09:33:06.531Z,95384.09
2023-03-20T09:35:33.161Z,95381.69
2023-03-20T09:37:59.834Z,95383.25
2023-03-20T09:40:31.589Z,95384.69
2023-03-20T09:43:15.660Z,95385.00
2023-03-20T09:45:51.943Z,95372.09
2023-03-20T09:48:28.118Z,95374.44
2023-03-20T09:51:02.994Z,95374.00
2023-03-20T09:53:48.957Z,95371.25
2023-03-20T09:56:25.544Z,95369.00
2023-03-20T09:59:00.650Z,95367.84
2023-03-20T10:01:33.291Z,95374.72
2023-03-20T10:04:08.628Z,95370.84
2023-03-20T10:06:35.799Z,95361.59
2023-03-20T10:09:12.138Z,95368.22
2023-03-20T10:11:49.372Z,95362.69
2023-03-20T10:14:33.850Z,95363.00
2023-03-20T10:17:00.499Z,95364.09
2023-03-20T10:19:34.035Z,95359.66
2023-03-20T10:22:17.787Z,95358.81
2023-03-20T10:25:22.742Z,95353.81
2023-03-20T10:27:51.500Z,95350.22
2023-03-20T10:30:21.224Z,95353.41
2023-03-20T10:33:27.206Z,95354.41
2023-03-20T10:36:31.118Z,95352.22
2023-03-20T10:39:28.973Z,95351.75
2023-03-20T10:41:59.734Z,95349.94
2023-03-20T10:44:34.863Z,95341.06
2023-03-20T10:47:04.089Z,95342.88
2023-03-20T10:49:41.048Z,95340.72
2023-03-20T10:52:16.493Z,95334.03
2023-03-20T10:54:49.784Z,95339.56
2023-03-20T10:57:25.032Z,95330.72
2023-03-20T10:59:53.991Z,95335.22
2023-03-20T11:02:21.917Z,95337.75
2023-03-20T11:04:48.941Z,95338.63
2023-03-20T11:07:24.427Z,95323.53
2023-03-20T11:10:13.221Z,95322.34
2023-03-20T11:12:41.073Z,95325.25
2023-03-20T11:15:43.659Z,95327.88
2023-03-20T11:18:15.706Z,95322.88
2023-03-20T11:20:47.579Z,95324.41
2023-03-20T11:23:19.552Z,95325.03
2023-03-20T11:25:52.457Z,95328.03
2023-03-20T11:28:31.091Z,95325.31
2023-03-20T11:31:05.847Z,95320.63
2023-03-20T11:33:38.903Z,95327.28
2023-03-20T11:36:29.890Z,95321.94
2023-03-20T11:39:15.264Z,95317.84
2023-03-20T11:41:56.563Z,95326.81
2023-03-20T11:44:28.503Z,95323.47
2023-03-20T11:47:03.871Z,95323.72
2023-03-20T11:49:32.992Z,95325.91
2023-03-20T11:52:13.335Z,95325.91
2023-03-20T11:54:48.394Z,95330.47
2023-03-20T11:57:36.026Z,95332.69
2023-03-20T12:00:04.733Z,95334.56
2023-03-20T12:02:32.166Z,95334.56
2023-03-20T12:05:02.125Z,95327.97
2023-03-20T12:07:38.065Z,95331.63
2023-03-20T12:13:06.667Z,95319.50
2023-03-20T12:15:43.136Z,95322.53
2023-03-20T12:18:30.876Z,95325.69
2023-03-20T12:21:09.588Z,95322.66
2023-03-20T12:23:47.696Z,95321.63
2023-03-20T12:29:40.639Z,95310.06
2023-03-20T12:32:23.450Z,95304.16
2023-03-20T12:35:14.263Z,95305.25
2023-03-20T12:37:42.015Z,95307.72
2023-03-20T12:40:17.229Z,95294.34
2023-03-20T12:43:14.517Z,95299.53
2023-03-20T12:45:47.074Z,95293.31
2023-03-20T12:48:34.794Z,95294.31
2023-03-20T12:51:17.098Z,95294.22
2023-03-20T12:54:16.242Z,95300.91
2023-03-20T12:56:55.599Z,95302.72
2023-03-20T12:59:40.617Z,95304.75
2023-03-20T13:02:10.158Z,95304.38
2023-03-20T13:04:48.882Z,95302.22
2023-03-20T13:07:23.027Z,95300.56
2023-03-20T13:09:58.573Z,95290.81
2023-03-20T13:12:34.921Z,95293.63
2023-03-20T13:15:24.443Z,95302.53
2023-03-20T13:18:10.309Z,95299.13
2023-03-20T13:20:55.214Z,95296.03
2023-03-20T13:23:36.882Z,95289.47
2023-03-20T13:26:08.803Z,95291.59
2023-03-20T13:28:41.115Z,95289.78
2023-03-20T13:31:37.376Z,95278.72
2023-03-20T13:34:26.010Z,95285.06
2023-03-20T13:37:22.268Z,95280.94
2023-03-20T13:40:11.481Z,95287.00
2023-03-20T13:43:21.416Z,95279.59
2023-03-20T13:45:52.087Z,95274.03
2023-03-20T13:48:25.323Z,95272.03
2023-03-20T13:51:18.894Z,95271.16
2023-03-20T13:53:46.097Z,95268.72
2023-03-20T13:56:38.714Z,95261.50
2023-03-20T13:59:24.278Z,95266.69
2023-03-20T14:02:00.937Z,95262.19
2023-03-20T14:04:29.874Z,95264.41
2023-03-20T14:06:58.658Z,95258.50
2023-03-20T14:09:31.350Z,95260.81
2023-03-20T14:12:26.163Z,95253.72
2023-03-20T14:14:57.553Z,95253.03
2023-03-20T14:17:32.216Z,95252.94
2023-03-20T14:20:12.523Z,95242.41
2023-03-20T14:22:40.980Z,95251.50
2023-03-20T14:25:19.466Z,95240.19
2023-03-20T14:28:11.076Z,95250.56
2023-03-20T14:30:39.757Z,95249.84
2023-03-20T14:33:17.490Z,95243.84
2023-03-20T14:35:51.509Z,95244.53
2023-03-20T14:38:24.090Z,95237.78
2023-03-20T14:41:11.050Z,95245.38
2023-03-20T14:44:02.521Z,95239.94
2023-03-20T14:46:32.258Z,95244.66
2023-03-20T14:49:16.689Z,95241.34
2023-03-20T14:51:50.768Z,95232.53
2023-03-20T14:54:31.377Z,95245.97
2023-03-20T14:57:20.044Z,95242.34
2023-03-20T14:59:50.116Z,95238.81
2023-03-20T15:02:27.854Z,95244.59
2023-03-20T15:04:55.491Z,95234.69
2023-03-20T15:07:28.859Z,95236.44
2023-03-20T15:09:59.663Z,95233.50
2023-03-20T15:12:28.951Z,95233.59
2023-03-20T15:15:01.382Z,95226.06
2023-03-20T15:17:38.910Z,95230.69
2023-03-20T15:20:22.976Z,95224.94
2023-03-20T15:22:49.505Z,95231.25
2023-03-20T15:25:18.824Z,95227.84
2023-03-20T15:27:46.032Z,95229.66
2023-03-20T15:30:21.822Z,95231.13
2023-03-20T15:32:49.959Z,95223.66
2023-03-20T15:35:19.443Z,95224.72
2023-03-20T15:37:47.946Z,95224.31
2023-03-20T15:40:26.908Z,95224.28
2023-03-20T15:43:01.009Z,95222.16
2023-03-20T15:45:33.145Z,95224.22
2023-03-20T15:48:12.560Z,95224.19
2023-03-20T15:50:43.511Z,95215.66
2023-03-20T15:53:18.031Z,95210.34
2023-03-20T15:55:50.805Z,95210.09
2023-03-20T15:58:18.039Z,95213.50
2023-03-20T16:00:47.633Z,95218.38
2023-03-20T16:03:20.851Z,95212.50
2023-03-20T16:05:50.565Z,95205.81
2023-03-20T16:08:27.727Z,95208.47
2023-03-20T16:11:04.754Z,95210.75
2023-03-20T16:13:39.010Z,95215.28
2023-03-20T16:16:10.228Z,95207.97
2023-03-20T16:18:39.417Z,95214.06
2023-03-20T16:21:21.303Z,95208.88
2023-03-20T16:23:51.920Z,95209.84
2023-03-20T16:26:21.077Z,95206.81
2023-03-20T16:28:51.035Z,95200.78
2023-03-20T16:31:34.069Z,95206.25
2023-03-20T16:34:06.908Z,95212.44
2023-03-20T16:36:36.841Z,95200.72
2023-03-20T16:39:03.369Z,95203.34
2023-03-20T16:41:34.461Z,95204.66
2023-03-20T16:44:25.640Z,95206.50
2023-03-20T16:47:10.564Z,95209.25
2023-03-20T16:50:12.658Z,95215.22
2023-03-20T16:52:41.940Z,95215.19
2023-03-20T16:55:35.837Z,95219.03
2023-03-20T16:58:06.240Z,95217.72
2023-03-20T17:00:43.559Z,95227.16
2023-03-20T17:03:16.505Z,95222.81
2023-03-20T17:05:59.459Z,95226.50
2023-03-20T17:08:45.259Z,95230.06
2023-03-20T17:11:15.015Z,95229.94
2023-03-20T17:13:42.228Z,95235.44
2023-03-20T17:16:16.006Z,95241.44
2023-03-20T17:18:45.348Z,95238.38
2023-03-20T17:21:12.704Z,95239.22
2023-03-20T17:23:39.756Z,95231.06
2023-03-20T17:26:11.709Z,95236.97
2023-03-20T17:28:38.876Z,95241.19
2023-03-20T17:31:06.616Z,95240.28
2023-03-20T17:33:33.927Z,95245.34
2023-03-20T17:36:00.848Z,95241.56
2023-03-20T17:38:27.794Z,95234.69
2023-03-20T17:40:54.473Z,95240.66
2023-03-20T17:43:21.322Z,95246.22
2023-03-20T17:45:48.535Z,95242.72
2023-03-20T17:48:20.601Z,95240.28
2023-03-20T17:50:52.350Z,95249.66
2023-03-20T17:53:25.253Z,95251.84
2023-03-20T17:55:52.757Z,95250.19
2023-03-20T17:58:22.497Z,95251.81
2023-03-20T18:00:54.082Z,95247.44
2023-03-20T18:03:21.163Z,95249.75
2023-03-20T18:05:50.281Z,95245.16
2023-03-20T18:08:21.300Z,95247.59
2023-03-20T18:10:49.824Z,95244.97
2023-03-20T18:13:21.107Z,95243.56
2023-03-20T18:15:49.752Z,95249.09
2023-03-20T18:18:16.517Z,95247.81
2023-03-20T18:20:43.960Z,95249.34
2023-03-20T18:23:10.579Z,95248.38
2023-03-20T18:25:37.534Z,95246.19
2023-03-20T18:28:07.116Z,95245.06
2023-03-20T18:30:37.665Z,95246.09
2023-03-20T18:33:05.277Z,95251.44
2023-03-20T18:35:32.268Z,95254.63
2023-03-20T18:37:59.587Z,95258.75
2023-03-20T18:40:35.825Z,95260.13
2023-03-20T18:43:03.206Z,95259.34
2023-03-20T18:45:32.953Z,95263.69
2023-03-20T18:47:59.729Z,95268.75
2023-03-20T18:50:28.038Z,95267.97
2023-03-20T18:52:56.940Z,95261.44
2023-03-20T18:55:25.080Z,95267.50
2023-03-20T18:57:52.124Z,95262.84
2023-03-20T19:00:25.503Z,95264.13
2023-03-20T19:02:55.174Z,95264.63
2023-03-20T19:05:26.513Z,95270.00
2023-03-20T19:07:53.778Z,95270.13
2023-03-20T19:10:34.663Z,95266.97
2023-03-20T19:13:02.965Z,95274.41
2023-03-20T19:15:35.842Z,95268.34
2023-03-20T19:18:04.469Z,95278.34
2023-03-20T19:20:43.595Z,95269.75
2023-03-20T19:23:15.409Z,95273.34
2023-03-20T19:25:44.224Z,95285.47
2023-03-20T19:28:37.714Z,95279.66
2023-03-20T19:31:06.281Z,95282.22
2023-03-20T19:33:33.329Z,95278.81
2023-03-20T19:36:03.693Z,95273.38
2023-03-20T19:38:31.179Z,95280.13
2023-03-20T19:40:59.281Z,95278.50
2023-03-20T19:43:28.808Z,95280.38
2023-03-20T19:45:58.551Z,95278.72
2023-03-20T19:48:43.387Z,95278.06
2023-03-20T19:51:16.259Z,95273.66
2023-03-20T19:53:44.522Z,95275.84
2023-03-20T19:56:12.124Z,95277.38
2023-03-20T19:58:40.008Z,95279.22
2023-03-20T20:01:14.769Z,95275.59
2023-03-20T20:03:41.809Z,95282.09
2023-03-20T20:06:08.600Z,95282.06
2023-03-20T20:08:46.857Z,95277.00
2023-03-20T20:11:16.189Z,95282.47
2023-03-20T20:14:04.274Z,95281.63
2023-03-20T20:16:30.111Z,95283.69
2023-03-20T20:18:56.732Z,95282.94
2023-03-20T20:24:10.440Z,95276.63
2023-03-20T20:26:41.281Z,95276.41
2023-03-20T20:29:16.159Z,95276.72
2023-03-20T20:31:43.932Z,95275.78
2023-03-20T20:39:45.875Z,95269.63
2023-03-20T20:42:13.048Z,95273.28
2023-03-20T20:44:41.172Z,95271.28
2023-03-20T20:47:08.727Z,95278.72
2023-03-20T20:49:35.737Z,95279.53
2023-03-20T20:52:02.605Z,95278.72
2023-03-20T20:54:29.424Z,95281.34
2023-03-20T20:56:56.252Z,95281.28
2023-03-20T20:59:23.301Z,95278.50
2023-03-20T21:01:50.675Z,95278.66
2023-03-20T21:04:17.935Z,95275.41
2023-03-20T21:07:08.070Z,95284.72
2023-03-20T21:09:31.992Z,95277.69
2023-03-20T21:11:58.984Z,95283.31
2023-03-20T21:14:26.163Z,95281.75
2023-03-20T21:16:53.450Z,95287.34
2023-03-20T21:19:20.089Z,95280.00
2023-03-20T21:21:46.805Z,95279.88
2023-03-20T21:24:31.163Z,95278.06
2023-03-20T21:26:59.894Z,95282.31
2023-03-20T21:29:26.795Z,95283.53
2023-03-20T21:31:53.965Z,95283.28
2023-03-20T21:34:20.912Z,95279.59
2023-03-20T21:36:49.295Z,95275.97
2023-03-20T21:39:17.023Z,95274.50
2023-03-20T21:41:44.672Z,95277.09
2023-03-20T21:44:16.968Z,95271.72
2023-03-20T21:50:28.761Z,95284.22
2023-03-20T21:58:38.321Z,95276.47
2023-03-20T22:04:02.656Z,95274.84
2023-03-20T22:26:39.164Z,95260.63
2023-03-20T22:40:29.213Z,95273.31
2023-03-20T22:42:51.551Z,95278.81
2023-03-20T22:45:14.115Z,95270.88
2023-03-20T22:47:40.949Z,95267.25
2023-03-20T22:50:08.324Z,95271.44
2023-03-20T22:52:48.030Z,95269.59
2023-03-20T22:55:16.937Z,95270.28
2023-03-20T22:57:56.062Z,95269.81
2023-03-20T23:00:27.349Z,95265.28
2023-03-20T23:02:57.457Z,95263.28
2023-03-20T23:05:30.100Z,95262.91
2023-03-20T23:07:56.639Z,95264.78
2023-03-20T23:10:23.827Z,95261.63
2023-03-20T23:12:50.397Z,95252.91
2023-03-20T23:15:17.193Z,95259.66
2023-03-20T23:17:43.984Z,95259.66
2023-03-20T23:20:16.766Z,95250.47
2023-03-20T23:22:46.456Z,95255.69
2023-03-20T23:25:21.032Z,95252.69
2023-03-20T23:27:54.182Z,95251.84
2023-03-20T23:30:23.395Z,95256.59
2023-03-20T23:32:52.168Z,95255.31
2023-03-20T23:35:18.752Z,95255.44
2023-03-20T23:37:45.632Z,95249.41
2023-03-20T23:40:12.573Z,95248.59
2023-03-20T23:42:39.117Z,95242.44
2023-03-20T23:45:19.099Z,95240.56
2023-03-20T23:47:48.135Z,95237.06
2023-03-20T23:50:26.387Z,95242.78
2023-03-20T23:53:03.477Z,95237.19
2023-03-20T23:55:35.675Z,95233.69
2023-03-20T23:58:02.970Z,95227.53
